createdAt,value
2022-10-05T00:00:53.550Z,12.78
2022-10-05T00:01:53.738Z,12.79
2022-10-05T00:02:53.526Z,12.78
2022-10-05T00:03:53.574Z,12.75
2022-10-05T00:04:53.525Z,12.77
2022-10-05T00:05:53.488Z,12.71
2022-10-05T00:06:53.488Z,12.71
2022-10-05T00:07:53.460Z,12.71
2022-10-05T00:08:53.438Z,12.71
2022-10-05T00:09:53.438Z,12.74
2022-10-05T00:10:53.418Z,12.71
2022-10-05T00:11:53.426Z,12.71
2022-10-05T00:12:53.389Z,12.74
2022-10-05T00:13:53.387Z,12.74
2022-10-05T00:14:53.371Z,12.70
2022-10-05T00:15:53.351Z,12.74
2022-10-05T00:16:53.408Z,12.71
2022-10-05T00:17:53.329Z,12.74
2022-10-05T00:18:53.311Z,12.79
2022-10-05T00:19:53.311Z,12.75
2022-10-05T00:20:53.280Z,12.79
2022-10-05T00:21:53.297Z,12.71
2022-10-05T00:22:53.262Z,12.75
2022-10-05T00:23:53.250Z,12.79
2022-10-05T00:24:53.231Z,12.75
2022-10-05T00:25:53.247Z,12.81
2022-10-05T00:26:57.732Z,12.82
2022-10-05T00:27:53.249Z,12.79
2022-10-05T00:28:53.180Z,12.78
2022-10-05T00:29:53.172Z,12.82
2022-10-05T00:30:53.169Z,12.84
2022-10-05T00:31:53.254Z,12.82
2022-10-05T00:32:58.644Z,12.82
2022-10-05T00:33:54.112Z,12.82
2022-10-05T00:34:53.101Z,12.82
2022-10-05T00:35:53.110Z,12.82
2022-10-05T00:36:53.071Z,12.82
2022-10-05T00:37:53.063Z,12.84
2022-10-05T00:38:53.052Z,12.79
2022-10-05T00:39:53.039Z,12.77
2022-10-05T00:40:53.034Z,12.79
2022-10-05T00:41:53.023Z,12.79
2022-10-05T00:42:52.994Z,12.84
2022-10-05T00:43:52.984Z,12.79
2022-10-05T00:44:52.965Z,12.81
2022-10-05T00:45:53.008Z,12.82
2022-10-05T00:46:52.961Z,12.79
2022-10-05T00:47:52.931Z,12.84
2022-10-05T00:48:52.913Z,12.87
2022-10-05T00:49:52.982Z,12.82
2022-10-05T00:50:52.884Z,12.84
2022-10-05T00:51:52.894Z,12.82
2022-10-05T00:52:52.865Z,12.79
2022-10-05T00:53:52.852Z,12.81
2022-10-05T00:54:52.834Z,12.78
2022-10-05T00:55:52.825Z,12.77
2022-10-05T00:56:52.823Z,12.77
2022-10-05T00:57:52.795Z,12.77
2022-10-05T00:58:52.777Z,12.77
2022-10-05T00:59:52.772Z,12.74
2022-10-05T01:00:52.808Z,12.75
2022-10-05T01:01:52.807Z,12.71
2022-10-05T01:02:52.793Z,12.74
2022-10-05T01:03:52.716Z,12.77
2022-10-05T01:04:52.696Z,12.70
2022-10-05T01:05:52.688Z,12.69
2022-10-05T01:06:52.686Z,12.69
2022-10-05T01:07:52.666Z,12.75
2022-10-05T01:08:52.646Z,12.70
2022-10-05T01:09:52.638Z,12.69
2022-10-05T01:10:52.629Z,12.70
2022-10-05T01:11:52.627Z,12.69
2022-10-05T01:12:52.594Z,12.70
2022-10-05T01:13:52.588Z,12.70
2022-10-05T01:14:52.570Z,12.67
2022-10-05T01:15:52.558Z,12.70
2022-10-05T01:16:52.603Z,12.66
2022-10-05T01:17:52.530Z,12.67
2022-10-05T01:18:52.518Z,12.63
2022-10-05T01:19:52.498Z,12.64
2022-10-05T01:20:52.488Z,12.66
2022-10-05T01:21:52.495Z,12.63
2022-10-05T01:22:52.459Z,12.60
2022-10-05T01:23:52.459Z,12.60
2022-10-05T01:24:52.439Z,12.59
2022-10-05T01:25:52.428Z,12.62
2022-10-05T01:26:52.439Z,12.60
2022-10-05T01:27:52.492Z,12.59
2022-10-05T01:28:52.382Z,12.59
2022-10-05T01:29:52.369Z,12.63
2022-10-05T01:30:52.349Z,12.62
2022-10-05T01:31:52.428Z,12.62
2022-10-05T01:32:52.331Z,12.60
2022-10-05T01:33:52.320Z,12.57
2022-10-05T01:34:52.303Z,12.60
2022-10-05T01:35:52.291Z,12.57
2022-10-05T01:36:52.331Z,12.63
2022-10-05T01:37:52.265Z,12.62
2022-10-05T01:38:52.248Z,12.59
2022-10-05T01:39:52.244Z,12.59
2022-10-05T01:40:52.222Z,12.60
2022-10-05T01:41:52.232Z,12.60
2022-10-05T01:42:52.193Z,12.62
2022-10-05T01:43:52.191Z,12.59
2022-10-05T01:44:52.172Z,12.60
2022-10-05T01:45:52.202Z,12.57
2022-10-05T01:46:52.142Z,12.57
2022-10-05T01:47:52.144Z,12.60
2022-10-05T01:48:52.113Z,12.59
2022-10-05T01:49:52.102Z,12.56
2022-10-05T01:50:52.083Z,12.57
2022-10-05T01:51:52.093Z,12.59
2022-10-05T01:52:52.066Z,12.62
2022-10-05T01:53:52.044Z,12.56
2022-10-05T01:54:52.041Z,12.54
2022-10-05T01:55:52.014Z,12.54
2022-10-05T01:56:52.037Z,12.57
2022-10-05T01:57:51.993Z,12.56
2022-10-05T01:58:51.985Z,12.57
2022-10-05T01:59:51.963Z,12.57
2022-10-05T02:00:51.985Z,12.56
2022-10-05T02:01:51.989Z,12.56
2022-10-05T02:02:51.955Z,12.59
2022-10-05T02:03:51.922Z,12.60
2022-10-05T02:05:07.228Z,12.59
2022-10-05T02:05:52.884Z,12.54
2022-10-05T02:06:51.895Z,12.57
2022-10-05T02:07:51.865Z,12.56
2022-10-05T02:08:51.865Z,12.56
2022-10-05T02:09:51.835Z,12.56
2022-10-05T02:10:51.836Z,12.56
2022-10-05T02:11:51.826Z,12.54
2022-10-05T02:12:51.807Z,12.56
2022-10-05T02:13:51.775Z,12.54
2022-10-05T02:14:51.776Z,12.56
2022-10-05T02:15:51.856Z,12.56
2022-10-05T02:16:51.763Z,12.51
2022-10-05T02:17:51.727Z,12.54
2022-10-05T02:18:51.729Z,12.56
2022-10-05T02:19:51.697Z,12.51
2022-10-05T02:20:51.689Z,12.51
2022-10-05T02:21:51.699Z,12.51
2022-10-05T02:22:51.667Z,12.49
2022-10-05T02:23:51.647Z,12.52
2022-10-05T02:24:51.638Z,12.46
2022-10-05T02:25:51.618Z,12.45
2022-10-05T02:26:51.627Z,12.44
2022-10-05T02:27:51.598Z,12.45
2022-10-05T02:28:51.587Z,12.44
2022-10-05T02:29:51.567Z,12.44
2022-10-05T02:30:51.558Z,12.38
2022-10-05T02:31:51.606Z,12.44
2022-10-05T02:32:51.528Z,12.45
2022-10-05T02:33:51.519Z,12.41
2022-10-05T02:34:51.507Z,12.44
2022-10-05T02:35:51.490Z,12.44
2022-10-05T02:36:51.498Z,12.41
2022-10-05T02:37:51.468Z,12.45
2022-10-05T02:38:51.467Z,12.45
2022-10-05T02:39:51.439Z,12.48
2022-10-05T02:40:51.427Z,12.49
2022-10-05T02:41:51.428Z,12.49
2022-10-05T02:42:51.402Z,12.49
2022-10-05T02:43:51.379Z,12.48
2022-10-05T02:44:51.372Z,12.48
2022-10-05T02:45:51.424Z,12.52
2022-10-05T02:46:56.790Z,12.54
2022-10-05T02:47:52.330Z,12.52
2022-10-05T02:48:51.322Z,12.51
2022-10-05T02:49:51.300Z,12.54
2022-10-05T02:50:51.301Z,12.59
2022-10-05T02:51:51.291Z,12.62
2022-10-05T02:52:51.281Z,12.64
2022-10-05T02:53:51.250Z,12.60
2022-10-05T02:54:51.255Z,12.64
2022-10-05T02:55:51.221Z,12.64
2022-10-05T02:56:51.221Z,12.62
2022-10-05T02:57:51.192Z,12.64
2022-10-05T02:58:51.190Z,12.67
2022-10-05T02:59:51.173Z,12.69
2022-10-05T03:00:51.206Z,12.71
2022-10-05T03:01:51.203Z,12.69
2022-10-05T03:02:51.133Z,12.67
2022-10-05T03:03:51.117Z,12.71
2022-10-05T03:04:51.102Z,12.66
2022-10-05T03:05:51.093Z,12.66
2022-10-05T03:06:51.101Z,12.70
2022-10-05T03:07:51.064Z,12.69
2022-10-05T03:08:51.054Z,12.66
2022-10-05T03:09:51.035Z,12.67
2022-10-05T03:10:51.025Z,12.69
2022-10-05T03:11:51.023Z,12.62
2022-10-05T03:12:51.007Z,12.63
2022-10-05T03:13:50.985Z,12.64
2022-10-05T03:14:50.978Z,12.66
2022-10-05T03:15:51.031Z,12.63
2022-10-05T03:16:51.004Z,12.66
2022-10-05T03:17:50.927Z,12.67
2022-10-05T03:18:50.923Z,12.63
2022-10-05T03:19:50.903Z,12.63
2022-10-05T03:20:50.895Z,12.64
2022-10-05T03:21:50.898Z,12.66
2022-10-05T03:22:50.866Z,12.64
2022-10-05T03:23:50.855Z,12.67
2022-10-05T03:24:50.848Z,12.64
2022-10-05T03:25:50.826Z,12.69
2022-10-05T03:26:50.840Z,12.67
2022-10-05T03:27:50.801Z,12.70
2022-10-05T03:28:50.786Z,12.70
2022-10-05T03:29:50.776Z,12.70
2022-10-05T03:30:50.803Z,12.74
2022-10-05T03:31:50.773Z,12.75
2022-10-05T03:32:50.748Z,12.74
2022-10-05T03:33:50.717Z,12.75
2022-10-05T03:34:50.708Z,12.78
2022-10-05T03:35:50.707Z,12.75
2022-10-05T03:36:50.707Z,12.77
2022-10-05T03:37:50.669Z,12.77
2022-10-05T03:38:50.668Z,12.77
2022-10-05T03:39:50.649Z,12.74
2022-10-05T03:40:50.629Z,12.78
2022-10-05T03:41:50.628Z,12.74
2022-10-05T03:42:50.607Z,12.75
2022-10-05T03:43:50.588Z,12.75
2022-10-05T03:44:50.581Z,12.75
2022-10-05T03:45:50.587Z,12.78
2022-10-05T03:46:50.719Z,12.75
2022-10-05T03:47:50.529Z,12.70
2022-10-05T03:48:50.520Z,12.70
2022-10-05T03:49:50.509Z,12.75
2022-10-05T03:50:50.502Z,12.70
2022-10-05T03:51:50.490Z,12.70
2022-10-05T03:52:50.470Z,12.74
2022-10-05T03:53:50.451Z,12.75
2022-10-05T03:54:50.442Z,12.77
2022-10-05T03:55:50.428Z,12.77
2022-10-05T03:56:50.432Z,12.77
2022-10-05T03:57:50.420Z,12.82
2022-10-05T03:58:50.391Z,12.82
2022-10-05T03:59:50.373Z,12.84
2022-10-05T04:00:50.369Z,12.85
2022-10-05T04:01:50.393Z,12.88
2022-10-05T04:02:50.428Z,12.88
2022-10-05T04:03:50.312Z,12.95
2022-10-05T04:04:50.314Z,12.96
2022-10-05T04:05:50.295Z,12.95
2022-10-05T04:06:50.351Z,12.97
2022-10-05T04:07:50.263Z,12.97
2022-10-05T04:08:50.259Z,12.97
2022-10-05T04:09:50.244Z,12.97
2022-10-05T04:10:50.264Z,13.00
2022-10-05T04:11:50.217Z,13.07
2022-10-05T04:12:50.226Z,13.04
2022-10-05T04:13:50.182Z,13.07
2022-10-05T04:14:50.183Z,13.12
2022-10-05T04:15:50.246Z,13.12
2022-10-05T04:16:50.163Z,13.15
2022-10-05T04:17:50.131Z,13.12
2022-10-05T04:18:50.122Z,13.12
2022-10-05T04:19:50.107Z,13.17
2022-10-05T04:20:50.094Z,13.18
2022-10-05T04:21:50.096Z,13.17
2022-10-05T04:22:50.084Z,13.18
2022-10-05T04:23:50.055Z,13.20
2022-10-05T04:24:50.044Z,13.21
2022-10-05T04:25:50.026Z,13.18
2022-10-05T04:26:50.111Z,13.21
2022-10-05T04:27:50.082Z,13.18
2022-10-05T04:28:49.993Z,13.21
2022-10-05T04:29:49.974Z,13.20
2022-10-05T04:30:49.967Z,13.18
2022-10-05T04:31:50.020Z,13.22
2022-10-05T04:32:49.947Z,13.21
2022-10-05T04:33:49.916Z,13.22
2022-10-05T04:34:49.918Z,13.21
2022-10-05T04:35:49.895Z,13.25
2022-10-05T04:36:49.887Z,13.24
2022-10-05T04:37:49.877Z,13.22
2022-10-05T04:38:49.858Z,13.22
2022-10-05T04:39:49.876Z,13.24
2022-10-05T04:40:49.828Z,13.24
2022-10-05T04:41:49.827Z,13.21
2022-10-05T04:42:49.807Z,13.24
2022-10-05T04:43:49.787Z,13.22
2022-10-05T04:44:49.778Z,13.21
2022-10-05T04:45:49.758Z,13.20
2022-10-05T04:46:50.261Z,13.20
2022-10-05T04:47:49.728Z,13.18
2022-10-05T04:48:49.729Z,13.24
2022-10-05T04:49:49.707Z,13.21
2022-10-05T04:50:49.698Z,13.21
2022-10-05T04:51:51.302Z,13.18
2022-10-05T04:52:49.672Z,13.15
2022-10-05T04:53:49.657Z,13.17
2022-10-05T04:54:49.649Z,13.17
2022-10-05T04:55:49.628Z,13.17
2022-10-05T04:56:49.979Z,13.15
2022-10-05T04:57:49.600Z,13.18
2022-10-05T04:58:49.592Z,13.15
2022-10-05T04:59:49.570Z,13.18
2022-10-05T05:00:49.640Z,13.15
2022-10-05T05:01:49.551Z,13.15
2022-10-05T05:02:49.550Z,13.18
2022-10-05T05:03:49.571Z,13.21
2022-10-05T05:04:51.878Z,13.18
2022-10-05T05:06:15.213Z,13.17
2022-10-05T05:06:50.480Z,13.18
2022-10-05T05:07:49.481Z,13.18
2022-10-05T05:08:49.511Z,13.15
2022-10-05T05:09:49.441Z,13.18
2022-10-05T05:10:49.436Z,13.20
2022-10-05T05:11:49.476Z,13.20
2022-10-05T05:12:49.401Z,13.20
2022-10-05T05:13:49.384Z,13.17
2022-10-05T05:14:49.392Z,13.18
2022-10-05T05:15:49.392Z,13.18
2022-10-05T05:16:49.636Z,13.20
2022-10-05T05:17:49.340Z,13.17
2022-10-05T05:18:49.323Z,13.15
2022-10-05T05:19:49.304Z,13.15
2022-10-05T05:20:49.302Z,13.20
2022-10-05T05:21:49.294Z,13.12
2022-10-05T05:22:49.274Z,13.14
2022-10-05T05:23:49.254Z,13.15
2022-10-05T05:24:49.263Z,13.15
2022-10-05T05:25:49.227Z,13.15
2022-10-05T05:26:49.514Z,13.17
2022-10-05T05:27:49.213Z,13.18
2022-10-05T05:28:49.196Z,13.18
2022-10-05T05:29:49.175Z,13.17
2022-10-05T05:30:49.165Z,13.15
2022-10-05T05:31:49.242Z,13.18
2022-10-05T05:32:49.135Z,13.18
2022-10-05T05:33:49.123Z,13.17
2022-10-05T05:34:49.106Z,13.20
2022-10-05T05:35:49.107Z,13.18
2022-10-05T05:36:49.403Z,13.21
2022-10-05T05:37:49.066Z,13.21
2022-10-05T05:38:49.057Z,13.22
2022-10-05T05:39:49.036Z,13.21
2022-10-05T05:40:49.026Z,13.25
2022-10-05T05:41:49.034Z,13.24
2022-10-05T05:42:49.007Z,13.25
2022-10-05T05:43:48.987Z,13.25
2022-10-05T05:44:48.977Z,13.25
2022-10-05T05:45:48.967Z,13.25
2022-10-05T05:47:03.568Z,13.25
2022-10-05T05:47:49.973Z,13.30
2022-10-05T05:48:48.927Z,13.30
2022-10-05T05:49:48.911Z,13.32
2022-10-05T05:50:48.898Z,13.32
2022-10-05T05:51:48.899Z,13.32
2022-10-05T05:52:48.869Z,13.30
2022-10-05T05:53:48.849Z,13.36
2022-10-05T05:54:48.857Z,13.38
2022-10-05T05:55:48.828Z,13.40
2022-10-05T05:56:49.087Z,13.41
2022-10-05T05:57:48.798Z,13.41
2022-10-05T05:58:48.789Z,13.43
2022-10-05T05:59:48.773Z,13.41
2022-10-05T06:00:48.784Z,13.43
2022-10-05T06:01:48.906Z,13.41
2022-10-05T06:02:48.829Z,13.43
2022-10-05T06:03:48.720Z,13.44
2022-10-05T06:04:48.710Z,13.46
2022-10-05T06:05:48.693Z,13.47
2022-10-05T06:06:49.181Z,13.51
2022-10-05T06:07:48.672Z,13.49
2022-10-05T06:08:48.653Z,13.55
2022-10-05T06:09:48.642Z,13.54
2022-10-05T06:10:48.632Z,13.55
2022-10-05T06:11:48.630Z,13.56
2022-10-05T06:12:48.607Z,13.58
2022-10-05T06:13:48.661Z,13.58
2022-10-05T06:14:48.587Z,13.58
2022-10-05T06:15:48.571Z,13.62
2022-10-05T06:16:49.024Z,13.65
2022-10-05T06:17:48.543Z,13.62
2022-10-05T06:18:48.531Z,13.63
2022-10-05T06:19:48.524Z,13.70
2022-10-05T06:20:48.502Z,13.65
2022-10-05T06:21:48.503Z,13.69
2022-10-05T06:22:48.470Z,13.70
2022-10-05T06:23:48.491Z,13.73
2022-10-05T06:24:48.444Z,13.74
2022-10-05T06:25:48.464Z,13.71
2022-10-05T06:26:49.002Z,13.71
2022-10-05T06:27:48.406Z,13.76
2022-10-05T06:28:48.385Z,13.79
2022-10-05T06:29:48.385Z,13.79
2022-10-05T06:30:48.364Z,13.79
2022-10-05T06:31:48.398Z,13.80
2022-10-05T06:32:48.335Z,13.80
2022-10-05T06:33:48.334Z,13.81
2022-10-05T06:34:48.304Z,13.83
2022-10-05T06:35:48.295Z,13.87
2022-10-05T06:36:48.730Z,13.91
2022-10-05T06:37:48.274Z,13.95
2022-10-05T06:38:48.263Z,13.94
2022-10-05T06:39:48.246Z,13.94
2022-10-05T06:40:48.227Z,13.94
2022-10-05T06:41:48.236Z,13.98
2022-10-05T06:42:48.205Z,14.02
2022-10-05T06:43:48.197Z,14.02
2022-10-05T06:44:48.176Z,14.04
2022-10-05T06:45:48.263Z,14.06
2022-10-05T06:46:48.542Z,14.09
2022-10-05T06:47:48.136Z,14.07
2022-10-05T06:48:48.126Z,14.10
2022-10-05T06:49:48.107Z,14.12
2022-10-05T06:50:48.098Z,14.10
2022-10-05T06:51:48.105Z,14.09
2022-10-05T06:52:48.068Z,14.14
2022-10-05T06:53:48.059Z,14.16
2022-10-05T06:54:48.060Z,14.17
2022-10-05T06:55:48.035Z,14.14
2022-10-05T06:56:48.490Z,14.17
2022-10-05T06:57:48.009Z,14.20
2022-10-05T06:58:47.989Z,14.21
2022-10-05T06:59:47.980Z,14.25
2022-10-05T07:00:47.984Z,14.21
2022-10-05T07:01:48.260Z,14.24
2022-10-05T07:02:47.950Z,14.21
2022-10-05T07:03:47.959Z,14.21
2022-10-05T07:04:47.910Z,14.25
2022-10-05T07:05:47.950Z,14.28
2022-10-05T07:06:47.901Z,14.27
2022-10-05T07:07:47.870Z,14.29
2022-10-05T07:08:47.851Z,14.29
2022-10-05T07:09:47.852Z,14.29
2022-10-05T07:10:47.823Z,14.29
2022-10-05T07:11:52.925Z,14.34
2022-10-05T07:12:48.801Z,14.34
2022-10-05T07:13:47.795Z,14.35
2022-10-05T07:14:47.772Z,14.34
2022-10-05T07:15:47.769Z,14.37
2022-10-05T07:16:47.829Z,14.38
2022-10-05T07:17:47.740Z,14.39
2022-10-05T07:18:47.755Z,14.39
2022-10-05T07:19:47.713Z,14.42
2022-10-05T07:20:49.294Z,14.42
2022-10-05T07:21:47.992Z,14.43
2022-10-05T07:22:47.671Z,14.42
2022-10-05T07:23:47.662Z,14.38
2022-10-05T07:24:47.633Z,14.34
2022-10-05T07:25:47.634Z,14.38
2022-10-05T07:26:47.811Z,14.35
2022-10-05T07:27:50.979Z,14.43
2022-10-05T07:28:47.583Z,14.44
2022-10-05T07:29:47.573Z,14.42
2022-10-05T07:30:47.606Z,14.43
2022-10-05T07:31:47.576Z,14.46
2022-10-05T07:32:47.536Z,14.47
2022-10-05T07:33:47.524Z,14.47
2022-10-05T07:34:47.505Z,14.49
2022-10-05T07:35:47.498Z,14.50
2022-10-05T07:36:52.218Z,14.53
2022-10-05T07:37:48.475Z,14.56
2022-10-05T07:38:47.458Z,14.53
2022-10-05T07:40:01.687Z,14.60
2022-10-05T07:40:48.426Z,14.64
2022-10-05T07:41:47.434Z,14.65
2022-10-05T07:42:51.823Z,14.68
2022-10-05T07:44:03.443Z,14.71
2022-10-05T07:44:48.367Z,14.68
2022-10-05T07:45:47.428Z,14.68
2022-10-05T07:46:47.609Z,14.68
2022-10-05T07:47:47.334Z,14.74
2022-10-05T07:48:47.351Z,14.74
2022-10-05T07:49:47.324Z,14.80
2022-10-05T07:50:47.309Z,14.78
2022-10-05T07:51:47.303Z,14.81
2022-10-05T07:52:47.270Z,14.83
2022-10-05T07:53:47.259Z,14.87
2022-10-05T07:54:47.243Z,14.87
2022-10-05T07:55:47.228Z,14.88
2022-10-05T07:56:47.417Z,14.90
2022-10-05T07:57:47.206Z,14.88
2022-10-05T07:58:47.188Z,14.93
2022-10-05T07:59:47.179Z,14.95
2022-10-05T08:00:47.161Z,14.98
2022-10-05T08:01:47.197Z,15.01
2022-10-05T08:02:47.164Z,15.05
2022-10-05T08:03:47.120Z,15.09
2022-10-05T08:04:47.110Z,15.17
2022-10-05T08:05:47.105Z,15.13
2022-10-05T08:06:47.322Z,15.12
2022-10-05T08:07:47.069Z,15.09
2022-10-05T08:08:47.051Z,15.12
2022-10-05T08:09:47.053Z,15.13
2022-10-05T08:10:47.021Z,15.17
2022-10-05T08:11:47.374Z,15.21
2022-10-05T08:12:46.992Z,15.23
2022-10-05T08:13:46.990Z,15.27
2022-10-05T08:14:46.972Z,15.26
2022-10-05T08:15:47.027Z,15.30
2022-10-05T08:16:47.157Z,15.33
2022-10-05T08:17:46.941Z,15.35
2022-10-05T08:18:46.921Z,15.35
2022-10-05T08:19:46.926Z,15.39
2022-10-05T08:20:46.924Z,15.42
2022-10-05T08:21:47.167Z,15.45
2022-10-05T08:22:46.865Z,15.51
2022-10-05T08:23:46.858Z,15.52
2022-10-05T08:24:46.853Z,15.59
2022-10-05T08:25:46.830Z,15.61
2022-10-05T08:26:46.814Z,15.64
2022-10-05T08:27:46.824Z,15.66
2022-10-05T08:28:46.785Z,15.66
2022-10-05T08:29:46.782Z,15.67
2022-10-05T08:30:46.794Z,15.70
2022-10-05T08:31:47.042Z,15.70
2022-10-05T08:32:46.746Z,15.72
2022-10-05T08:33:46.716Z,15.70
2022-10-05T08:34:46.719Z,15.70
2022-10-05T08:35:46.724Z,15.68
2022-10-05T08:36:49.257Z,15.70
2022-10-05T08:37:47.686Z,15.78
2022-10-05T08:38:46.646Z,15.84
2022-10-05T08:39:46.648Z,15.88
2022-10-05T08:40:46.628Z,15.93
2022-10-05T08:41:46.837Z,15.92
2022-10-05T08:42:46.614Z,15.97
2022-10-05T08:43:46.601Z,15.96
2022-10-05T08:44:46.567Z,15.96
2022-10-05T08:45:46.630Z,15.94
2022-10-05T08:46:46.538Z,15.97
2022-10-05T08:47:46.550Z,15.99
2022-10-05T08:48:46.520Z,15.94
2022-10-05T08:49:46.509Z,15.97
2022-10-05T08:50:46.489Z,16.00
2022-10-05T08:51:46.667Z,16.06
2022-10-05T08:52:46.479Z,16.04
2022-10-05T08:53:46.461Z,16.07
2022-10-05T08:54:46.440Z,16.07
2022-10-05T08:55:46.496Z,16.16
2022-10-05T08:56:46.410Z,16.15
2022-10-05T08:57:46.426Z,16.12
2022-10-05T08:58:46.392Z,16.15
2022-10-05T08:59:46.380Z,16.18
2022-10-05T09:00:46.369Z,16.22
2022-10-05T09:01:46.648Z,16.18
2022-10-05T09:02:46.402Z,16.18
2022-10-05T09:03:46.352Z,16.23
2022-10-05T09:04:46.309Z,16.26
2022-10-05T09:05:46.293Z,16.26
2022-10-05T09:06:46.285Z,16.26
2022-10-05T09:07:46.283Z,16.31
2022-10-05T09:08:46.252Z,16.30
2022-10-05T09:09:46.242Z,16.35
2022-10-05T09:10:46.235Z,16.38
2022-10-05T09:11:46.468Z,16.35
2022-10-05T09:12:46.213Z,16.38
2022-10-05T09:13:46.193Z,16.40
2022-10-05T09:14:52.653Z,16.40
2022-10-05T09:15:47.201Z,16.44
2022-10-05T09:16:46.164Z,16.48
2022-10-05T09:17:46.142Z,16.53
2022-10-05T09:18:46.122Z,16.59
2022-10-05T09:19:46.146Z,16.65
2022-10-05T09:20:46.096Z,16.63
2022-10-05T09:21:46.372Z,16.62
2022-10-05T09:22:46.064Z,16.65
2022-10-05T09:23:46.055Z,16.68
2022-10-05T09:24:48.498Z,16.71
2022-10-05T09:25:46.036Z,16.73
2022-10-05T09:26:46.034Z,16.71
2022-10-05T09:27:46.004Z,16.71
2022-10-05T09:28:45.987Z,16.74
2022-10-05T09:29:45.977Z,16.75
2022-10-05T09:30:46.007Z,16.81
2022-10-05T09:31:46.260Z,16.86
2022-10-05T09:32:45.937Z,16.93
2022-10-05T09:33:45.926Z,16.98
2022-10-05T09:34:45.918Z,17.00
2022-10-05T09:35:45.898Z,17.00
2022-10-05T09:36:45.916Z,16.98
2022-10-05T09:37:45.870Z,16.95
2022-10-05T09:38:52.992Z,16.98
2022-10-05T09:39:45.849Z,16.95
2022-10-05T09:40:45.833Z,17.00
2022-10-05T09:41:46.104Z,17.00
2022-10-05T09:42:45.803Z,17.00
2022-10-05T09:43:45.794Z,17.06
2022-10-05T09:44:45.772Z,17.03
2022-10-05T09:45:45.770Z,17.07
2022-10-05T09:46:45.875Z,17.07
2022-10-05T09:47:45.733Z,17.13
2022-10-05T09:48:45.723Z,17.14
2022-10-05T09:49:45.713Z,17.15
2022-10-05T09:50:45.695Z,17.13
2022-10-05T09:51:45.937Z,17.11
2022-10-05T09:52:45.765Z,17.08
2022-10-05T09:53:45.678Z,17.08
2022-10-05T09:54:45.637Z,17.14
2022-10-05T09:55:45.634Z,17.17
2022-10-05T09:56:45.850Z,17.20
2022-10-05T09:57:47.198Z,17.22
2022-10-05T09:58:45.586Z,17.15
2022-10-05T09:59:45.585Z,17.20
2022-10-05T10:00:51.473Z,17.23
2022-10-05T10:01:46.989Z,17.23
2022-10-05T10:02:45.626Z,17.23
2022-10-05T10:03:45.527Z,17.22
2022-10-05T10:04:45.508Z,17.25
2022-10-05T10:05:45.508Z,17.28
2022-10-05T10:06:45.511Z,17.30
2022-10-05T10:07:45.493Z,17.32
2022-10-05T10:08:45.470Z,17.32
2022-10-05T10:09:45.479Z,17.33
2022-10-05T10:10:45.432Z,17.35
2022-10-05T10:11:45.684Z,17.36
2022-10-05T10:12:45.407Z,17.40
2022-10-05T10:13:45.399Z,17.47
2022-10-05T10:14:45.377Z,17.50
2022-10-05T10:15:45.407Z,17.53
2022-10-05T10:16:45.391Z,17.55
2022-10-05T10:17:45.362Z,17.59
2022-10-05T10:18:45.357Z,17.57
2022-10-05T10:19:45.324Z,17.54
2022-10-05T10:20:45.315Z,17.57
2022-10-05T10:21:45.615Z,17.64
2022-10-05T10:22:45.290Z,17.74
2022-10-05T10:23:45.272Z,17.81
2022-10-05T10:24:45.250Z,17.84
2022-10-05T10:25:45.241Z,17.94
2022-10-05T10:26:45.244Z,17.97
2022-10-05T10:27:48.061Z,18.07
2022-10-05T10:28:46.210Z,18.07
2022-10-05T10:29:45.183Z,18.07
2022-10-05T10:30:45.208Z,18.13
2022-10-05T10:31:45.502Z,18.12
2022-10-05T10:32:45.151Z,18.17
2022-10-05T10:33:45.132Z,18.18
2022-10-05T10:34:45.123Z,18.22
2022-10-05T10:35:45.094Z,18.29
2022-10-05T10:36:45.110Z,18.28
2022-10-05T10:37:45.085Z,18.28
2022-10-05T10:38:45.077Z,18.28
2022-10-05T10:39:45.066Z,18.33
2022-10-05T10:40:45.043Z,18.40
2022-10-05T10:41:45.035Z,18.43
2022-10-05T10:42:45.015Z,18.44
2022-10-05T10:43:44.993Z,18.46
2022-10-05T10:44:44.996Z,18.46
2022-10-05T10:45:44.976Z,18.47
2022-10-05T10:46:45.092Z,18.49
2022-10-05T10:47:44.945Z,18.54
2022-10-05T10:48:44.927Z,18.61
2022-10-05T10:49:44.969Z,18.70
2022-10-05T10:50:44.898Z,18.73
2022-10-05T10:51:44.880Z,18.77
2022-10-05T10:52:44.897Z,18.92
2022-10-05T10:53:44.852Z,18.99
2022-10-05T10:54:44.849Z,19.08
2022-10-05T10:55:44.828Z,19.10
2022-10-05T10:56:44.837Z,19.39
2022-10-05T10:57:44.799Z,19.61
2022-10-05T10:58:44.791Z,19.73
2022-10-05T10:59:44.784Z,20.06
2022-10-05T11:00:44.762Z,20.68
2022-10-05T11:01:44.807Z,20.53
2022-10-05T11:02:44.836Z,20.68
2022-10-05T11:03:44.731Z,21.14
2022-10-05T11:04:44.711Z,21.16
2022-10-05T11:05:48.008Z,20.81
2022-10-05T11:06:44.703Z,20.99
2022-10-05T11:07:44.682Z,21.72
2022-10-05T11:08:44.672Z,21.42
2022-10-05T11:09:44.653Z,21.57
2022-10-05T11:10:44.631Z,21.69
2022-10-05T11:11:44.654Z,21.67
2022-10-05T11:12:44.725Z,22.22
2022-10-05T11:13:44.604Z,22.50
2022-10-05T11:14:44.584Z,22.87
2022-10-05T11:15:44.705Z,22.52
2022-10-05T11:16:44.575Z,22.02
2022-10-05T11:17:44.635Z,21.79
2022-10-05T11:18:44.542Z,21.51
2022-10-05T11:20:02.619Z,22.52
2022-10-05T11:20:45.496Z,22.67
2022-10-05T11:21:44.478Z,22.41
2022-10-05T11:22:44.516Z,23.17
2022-10-05T11:23:44.479Z,23.32
2022-10-05T11:24:44.447Z,24.07
2022-10-05T11:25:44.498Z,24.69
2022-10-05T11:26:44.427Z,25.27
2022-10-05T11:27:44.419Z,25.62
2022-10-05T11:28:44.399Z,25.64
2022-10-05T11:29:44.379Z,25.86
2022-10-05T11:30:47.462Z,25.16
2022-10-05T11:31:45.418Z,25.20
2022-10-05T11:32:44.350Z,25.38
2022-10-05T11:33:44.331Z,25.52
2022-10-05T11:34:44.322Z,25.69
2022-10-05T11:35:44.321Z,25.99
2022-10-05T11:36:44.293Z,26.02
2022-10-05T11:37:44.292Z,26.15
2022-10-05T11:38:44.263Z,26.22
2022-10-05T11:39:44.253Z,25.93
2022-10-05T11:40:44.244Z,26.11
2022-10-05T11:41:44.236Z,26.06
2022-10-05T11:42:44.245Z,26.12
2022-10-05T11:43:44.195Z,26.18
2022-10-05T11:44:44.185Z,26.44
2022-10-05T11:45:44.177Z,26.79
2022-10-05T11:46:44.230Z,27.05
2022-10-05T11:47:44.180Z,27.28
2022-10-05T11:48:44.136Z,26.79
2022-10-05T11:49:44.117Z,26.92
2022-10-05T11:50:44.118Z,26.99
2022-10-05T11:51:44.102Z,27.17
2022-10-05T11:52:44.109Z,27.29
2022-10-05T11:53:44.069Z,27.38
2022-10-05T11:55:09.350Z,27.39
2022-10-05T11:55:45.049Z,27.51
2022-10-05T11:56:44.041Z,27.20
2022-10-05T11:57:44.043Z,26.57
2022-10-05T11:58:44.024Z,26.61
2022-10-05T11:59:44.013Z,27.01
2022-10-05T12:00:43.993Z,27.29
2022-10-05T12:01:43.973Z,27.31
2022-10-05T12:02:44.097Z,27.32
2022-10-05T12:03:44.061Z,27.20
2022-10-05T12:04:43.944Z,26.46
2022-10-05T12:05:43.926Z,26.46
2022-10-05T12:06:43.943Z,26.36
2022-10-05T12:07:43.985Z,26.47
2022-10-05T12:08:43.894Z,26.31
2022-10-05T12:09:43.913Z,26.37
2022-10-05T12:10:43.893Z,26.12
2022-10-05T12:11:43.867Z,25.91
2022-10-05T12:12:43.868Z,25.87
2022-10-05T12:13:43.848Z,25.62
2022-10-05T12:14:43.826Z,25.44
2022-10-05T12:15:43.838Z,25.46
2022-10-05T12:16:43.798Z,25.56
2022-10-05T12:17:43.799Z,25.67
2022-10-05T12:18:43.780Z,25.67
2022-10-05T12:19:43.758Z,25.67
2022-10-05T12:20:43.748Z,25.59
2022-10-05T12:21:43.754Z,25.31
2022-10-05T12:22:43.742Z,25.06
2022-10-05T12:23:43.712Z,24.87
2022-10-05T12:24:43.702Z,24.71
2022-10-05T12:25:43.683Z,24.50
2022-10-05T12:26:43.685Z,24.32
2022-10-05T12:27:43.691Z,24.12
2022-10-05T12:28:43.654Z,23.82
2022-10-05T12:29:43.634Z,23.62
2022-10-05T12:30:43.632Z,23.32
2022-10-05T12:31:43.659Z,23.15
2022-10-05T12:32:43.636Z,23.09
2022-10-05T12:33:43.586Z,22.92
2022-10-05T12:34:43.578Z,22.78
2022-10-05T12:35:48.262Z,22.68
2022-10-05T12:37:03.522Z,22.59
2022-10-05T12:37:44.558Z,22.50
2022-10-05T12:38:43.533Z,22.44
2022-10-05T12:39:43.520Z,22.31
2022-10-05T12:40:43.500Z,22.38
2022-10-05T12:41:43.490Z,22.37
2022-10-05T12:42:43.498Z,22.32
2022-10-05T12:43:43.467Z,22.29
2022-10-05T12:44:43.471Z,22.32
2022-10-05T12:45:43.523Z,22.39
2022-10-05T12:46:43.431Z,22.38
2022-10-05T12:47:43.432Z,22.38
2022-10-05T12:48:43.407Z,22.38
2022-10-05T12:49:43.391Z,22.39
2022-10-05T12:50:43.386Z,22.35
2022-10-05T12:51:43.363Z,22.31
2022-10-05T12:52:43.397Z,22.34